Echo Valley, Pennsylvania
Current Conditions -  °F | °C
As of 12:28 PM on Thursday 23 Oct 2014 (Local Time) from KMUI Reporting Station
Broken Clouds Broken Clouds  
Wind Chill: 14°   Ceiling: 2700
Heat Index: 14°   Visibility: 10mi
Dew Point:   Wind: 12mph
Humidity: 72%   Direction: 340°NNW
Pressure: 29.84"   Gusts: 24mph
Location:  40.6079°N, 76.4334°W
Report Text: KMUI 231628Z AUTO 34010G21KT 10SM BKN027 14/09 A2984 RMK AO2 BKN V SCT $
Loading
Personal Weather Stations






























Interactive Weather Map
Tropical Storm Tracking
New forecast layout! Learn more

10-Day Weather Forecast

Advertisements
Track Severe Weather on mobile